sensor_id;sensor_type;location;lat;lon;timestamp;pressure;altitude;pressure_sealevel;temperature;humidity
72612;BME280;60655;52.182;4.474;2023-05-08T00:00:35;102018.28;;;13.69;90.55
72612;BME280;60655;52.182;4.474;2023-05-08T00:02:36;102032.06;;;13.73;90.19
72612;BME280;60655;52.182;4.474;2023-05-08T00:04:37;102028.78;;;13.51;90.17
72612;BME280;60655;52.182;4.474;2023-05-08T00:06:37;102029.81;;;13.57;90.60
72612;BME280;60655;52.182;4.474;2023-05-08T00:08:38;102026.91;;;13.78;89.66
72612;BME280;60655;52.182;4.474;2023-05-08T00:10:40;102025.88;;;13.79;89.26
72612;BME280;60655;52.182;4.474;2023-05-08T00:12:41;102026.50;;;13.74;88.98
72612;BME280;60655;52.182;4.474;2023-05-08T00:14:41;102021.16;;;13.74;89.33
72612;BME280;60655;52.182;4.474;2023-05-08T00:16:42;102025.28;;;13.64;89.78
72612;BME280;60655;52.182;4.474;2023-05-08T00:18:43;102018.09;;;13.64;90.08
72612;BME280;60655;52.182;4.474;2023-05-08T00:20:44;102020.16;;;13.49;90.95
72612;BME280;60655;52.182;4.474;2023-05-08T00:22:45;102020.19;;;13.23;92.68
72612;BME280;60655;52.182;4.474;2023-05-08T00:24:46;102026.72;;;13.33;92.30
72612;BME280;60655;52.182;4.474;2023-05-08T00:26:47;102018.31;;;13.30;92.38
72612;BME280;60655;52.182;4.474;2023-05-08T00:28:48;102010.50;;;13.41;92.15
72612;BME280;60655;52.182;4.474;2023-05-08T00:30:49;102013.59;;;13.45;90.92
72612;BME280;60655;52.182;4.474;2023-05-08T00:32:50;102024.47;;;13.43;91.00
72612;BME280;60655;52.182;4.474;2023-05-08T00:34:51;102026.13;;;13.18;91.27
72612;BME280;60655;52.182;4.474;2023-05-08T00:36:52;102025.09;;;13.39;91.37
72612;BME280;60655;52.182;4.474;2023-05-08T00:38:53;102022.41;;;13.39;91.53
72612;BME280;60655;52.182;4.474;2023-05-08T00:40:54;102030.63;;;13.37;91.30
72612;BME280;60655;52.182;4.474;2023-05-08T00:42:55;102028.59;;;13.26;91.75
72612;BME280;60655;52.182;4.474;2023-05-08T00:44:56;102011.06;;;13.04;92.49
72612;BME280;60655;52.182;4.474;2023-05-08T00:46:57;102021.38;;;13.33;91.85
72612;BME280;60655;52.182;4.474;2023-05-08T00:48:58;102029.19;;;13.28;92.21
72612;BME280;60655;52.182;4.474;2023-05-08T00:51:01;102001.50;;;13.23;92.23
72612;BME280;60655;52.182;4.474;2023-05-08T00:53:04;102022.00;;;13.29;91.83
72612;BME280;60655;52.182;4.474;2023-05-08T00:55:05;102016.06;;;13.20;92.66
72612;BME280;60655;52.182;4.474;2023-05-08T00:57:06;102008.00;;;13.07;93.43
72612;BME280;60655;52.182;4.474;2023-05-08T00:59:10;102021.97;;;13.09;93.80
72612;BME280;60655;52.182;4.474;2023-05-08T01:01:13;102013.56;;;13.12;94.22
72612;BME280;60655;52.182;4.474;2023-05-08T01:03:14;102009.69;;;13.21;93.21
72612;BME280;60655;52.182;4.474;2023-05-08T01:05:15;102011.34;;;13.22;92.70
72612;BME280;60655;52.182;4.474;2023-05-08T01:07:16;102016.28;;;13.18;93.12
72612;BME280;60655;52.182;4.474;2023-05-08T01:09:17;102014.41;;;13.19;92.46
72612;BME280;60655;52.182;4.474;2023-05-08T01:11:24;102015.59;;;13.10;92.84
72612;BME280;60655;52.182;4.474;2023-05-08T01:13:41;102017.72;;;13.21;92.52
72612;BME280;60655;52.182;4.474;2023-05-08T01:15:51;102021.00;;;13.23;92.95
72612;BME280;60655;52.182;4.474;2023-05-08T01:18:18;102023.81;;;13.15;93.27
72612;BME280;60655;52.182;4.474;2023-05-08T01:21:22;102023.59;;;13.10;93.25
72612;BME280;60655;52.182;4.474;2023-05-08T01:32:26;102026.28;;;12.97;93.63
72612;BME280;60655;52.182;4.474;2023-05-08T01:34:31;102026.66;;;13.00;93.44
72612;BME280;60655;52.182;4.474;2023-05-08T01:36:51;102033.22;;;12.91;93.76
72612;BME280;60655;52.182;4.474;2023-05-08T01:39:13;102030.56;;;13.04;94.35
72612;BME280;60655;52.182;4.474;2023-05-08T01:41:27;102024.22;;;13.05;93.60
72612;BME280;60655;52.182;4.474;2023-05-08T01:45:39;102029.75;;;13.04;93.30
72612;BME280;60655;52.182;4.474;2023-05-08T01:47:43;102029.34;;;12.94;94.04
72612;BME280;60655;52.182;4.474;2023-05-08T01:49:51;102033.03;;;12.93;94.42
72612;BME280;60655;52.182;4.474;2023-05-08T01:52:17;102025.84;;;13.00;93.71
72612;BME280;60655;52.182;4.474;2023-05-08T01:54:22;102026.03;;;12.85;94.46
72612;BME280;60655;52.182;4.474;2023-05-08T01:56:25;102034.25;;;12.90;94.61
72612;BME280;60655;52.182;4.474;2023-05-08T01:58:29;102030.16;;;12.94;94.25
72612;BME280;60655;52.182;4.474;2023-05-08T02:00:32;102035.28;;;12.89;94.24
72612;BME280;60655;52.182;4.474;2023-05-08T02:02:34;102037.31;;;12.87;94.60
72612;BME280;60655;52.182;4.474;2023-05-08T02:04:36;102035.66;;;12.79;93.38
72612;BME280;60655;52.182;4.474;2023-05-08T02:06:38;102041.44;;;12.90;93.64
72612;BME280;60655;52.182;4.474;2023-05-08T02:08:40;102046.75;;;12.90;93.12
72612;BME280;60655;52.182;4.474;2023-05-08T02:10:43;102048.84;;;12.94;92.40
72612;BME280;60655;52.182;4.474;2023-05-08T02:12:47;102045.53;;;12.85;91.93
72612;BME280;60655;52.182;4.474;2023-05-08T02:14:51;102042.03;;;12.85;91.68
72612;BME280;60655;52.182;4.474;2023-05-08T02:16:53;102050.16;;;12.57;92.52
72612;BME280;60655;52.182;4.474;2023-05-08T02:18:57;102039.75;;;12.75;92.30
72612;BME280;60655;52.182;4.474;2023-05-08T02:21:03;102045.66;;;12.71;92.07
72612;BME280;60655;52.182;4.474;2023-05-08T02:23:05;102049.97;;;12.72;91.76
72612;BME280;60655;52.182;4.474;2023-05-08T02:25:06;102038.91;;;12.68;91.36
72612;BME280;60655;52.182;4.474;2023-05-08T02:27:08;102042.34;;;12.56;92.09
72612;BME280;60655;52.182;4.474;2023-05-08T02:29:10;102042.75;;;12.52;92.46
72612;BME280;60655;52.182;4.474;2023-05-08T02:31:11;102035.00;;;12.71;92.02
72612;BME280;60655;52.182;4.474;2023-05-08T02:33:13;102044.22;;;12.62;92.18
72612;BME280;60655;52.182;4.474;2023-05-08T02:35:17;102036.63;;;12.59;92.44
72612;BME280;60655;52.182;4.474;2023-05-08T02:37:19;102044.97;;;12.49;92.58
72612;BME280;60655;52.182;4.474;2023-05-08T02:39:24;102041.88;;;12.39;93.33
72612;BME280;60655;52.182;4.474;2023-05-08T02:41:28;102032.88;;;12.40;93.03
72612;BME280;60655;52.182;4.474;2023-05-08T02:43:30;102045.19;;;12.47;92.81
72612;BME280;60655;52.182;4.474;2023-05-08T02:45:45;102039.06;;;12.54;92.37
72612;BME280;60655;52.182;4.474;2023-05-08T02:48:08;102041.28;;;12.50;92.06
72612;BME280;60655;52.182;4.474;2023-05-08T02:50:44;102036.19;;;12.55;91.29
72612;BME280;60655;52.182;4.474;2023-05-08T02:52:50;102043.34;;;12.48;91.97
72612;BME280;60655;52.182;4.474;2023-05-08T02:55:14;102040.66;;;12.41;92.65
72612;BME280;60655;52.182;4.474;2023-05-08T02:57:34;102032.44;;;12.36;92.65
72612;BME280;60655;52.182;4.474;2023-05-08T02:59:42;102036.13;;;12.42;93.20
72612;BME280;60655;52.182;4.474;2023-05-08T03:01:51;102028.75;;;12.37;92.84
72612;BME280;60655;52.182;4.474;2023-05-08T03:04:00;102025.47;;;12.35;93.24
72612;BME280;60655;52.182;4.474;2023-05-08T03:06:07;102021.38;;;12.39;92.80
72612;BME280;60655;52.182;4.474;2023-05-08T03:08:19;102030.13;;;12.27;92.27
72612;BME280;60655;52.182;4.474;2023-05-08T03:10:27;102027.56;;;12.05;93.06
72612;BME280;60655;52.182;4.474;2023-05-08T03:12:31;102027.63;;;12.18;93.20
72612;BME280;60655;52.182;4.474;2023-05-08T03:14:37;102034.31;;;12.01;93.37
72612;BME280;60655;52.182;4.474;2023-05-08T03:16:43;102029.72;;;11.89;93.69
72612;BME280;60655;52.182;4.474;2023-05-08T03:19:11;102030.28;;;11.84;93.78
72612;BME280;60655;52.182;4.474;2023-05-08T03:21:17;102031.00;;;11.99;93.35
72612;BME280;60655;52.182;4.474;2023-05-08T03:23:20;102029.84;;;12.08;92.98
72612;BME280;60655;52.182;4.474;2023-05-08T03:25:22;102036.63;;;12.17;93.05
72612;BME280;60655;52.182;4.474;2023-05-08T03:27:24;102028.97;;;12.01;93.06
72612;BME280;60655;52.182;4.474;2023-05-08T03:29:26;102030.44;;;12.04;92.92
72612;BME280;60655;52.182;4.474;2023-05-08T03:31:30;102018.56;;;12.13;92.69
72612;BME280;60655;52.182;4.474;2023-05-08T03:33:33;102025.94;;;12.04;92.53
72612;BME280;60655;52.182;4.474;2023-05-08T03:35:38;102026.59;;;12.20;91.90
72612;BME280;60655;52.182;4.474;2023-05-08T03:37:39;102027.28;;;12.28;92.15
72612;BME280;60655;52.182;4.474;2023-05-08T03:39:40;102029.34;;;12.33;92.64
72612;BME280;60655;52.182;4.474;2023-05-08T03:41:41;102021.47;;;12.11;92.45
72612;BME280;60655;52.182;4.474;2023-05-08T03:43:42;102024.94;;;12.12;93.10
72612;BME280;60655;52.182;4.474;2023-05-08T03:45:44;102022.63;;;12.02;93.29
72612;BME280;60655;52.182;4.474;2023-05-08T03:47:46;102022.53;;;11.89;93.59
72612;BME280;60655;52.182;4.474;2023-05-08T03:49:48;102014.72;;;11.81;94.45
72612;BME280;60655;52.182;4.474;2023-05-08T03:51:50;102019.16;;;11.74;94.01
72612;BME280;60655;52.182;4.474;2023-05-08T03:53:52;102013.38;;;11.70;94.14
72612;BME280;60655;52.182;4.474;2023-05-08T03:55:53;102009.78;;;11.78;94.11
72612;BME280;60655;52.182;4.474;2023-05-08T03:58:20;102015.03;;;11.71;93.16
72612;BME280;60655;52.182;4.474;2023-05-08T04:03:15;102009.22;;;11.82;93.21
72612;BME280;60655;52.182;4.474;2023-05-08T04:05:27;102012.50;;;11.63;93.08
72612;BME280;60655;52.182;4.474;2023-05-08T04:07:37;102009.06;;;11.69;93.74
72612;BME280;60655;52.182;4.474;2023-05-08T04:10:01;102021.19;;;12.00;92.63
72612;BME280;60655;52.182;4.474;2023-05-08T04:12:12;102024.72;;;12.13;92.07
72612;BME280;60655;52.182;4.474;2023-05-08T04:14:18;102024.91;;;12.05;92.69
72612;BME280;60655;52.182;4.474;2023-05-08T04:16:21;102029.84;;;12.15;93.24
72612;BME280;60655;52.182;4.474;2023-05-08T04:18:29;102033.63;;;11.93;93.52
72612;BME280;60655;52.182;4.474;2023-05-08T04:20:31;102029.59;;;12.03;94.03
72612;BME280;60655;52.182;4.474;2023-05-08T04:22:33;102033.28;;;12.02;94.72
72612;BME280;60655;52.182;4.474;2023-05-08T04:24:39;102040.00;;;11.98;95.25
72612;BME280;60655;52.182;4.474;2023-05-08T04:26:42;102039.06;;;11.78;95.68
72612;BME280;60655;52.182;4.474;2023-05-08T04:28:44;102040.66;;;12.00;95.55
72612;BME280;60655;52.182;4.474;2023-05-08T04:30:46;102050.88;;;11.97;95.92
72612;BME280;60655;52.182;4.474;2023-05-08T04:32:48;102048.31;;;11.82;95.68
72612;BME280;60655;52.182;4.474;2023-05-08T04:34:50;102046.56;;;11.96;96.04
72612;BME280;60655;52.182;4.474;2023-05-08T04:36:51;102045.97;;;11.72;96.55
72612;BME280;60655;52.182;4.474;2023-05-08T04:38:52;102048.44;;;11.74;97.18
72612;BME280;60655;52.182;4.474;2023-05-08T04:40:53;102053.94;;;11.72;97.53
72612;BME280;60655;52.182;4.474;2023-05-08T04:42:54;102047.72;;;11.87;97.52
72612;BME280;60655;52.182;4.474;2023-05-08T04:44:55;102037.59;;;12.03;97.37
72612;BME280;60655;52.182;4.474;2023-05-08T04:46:56;102047.66;;;12.08;97.34
72612;BME280;60655;52.182;4.474;2023-05-08T04:48:57;102048.84;;;11.99;97.49
72612;BME280;60655;52.182;4.474;2023-05-08T04:50:59;102043.41;;;11.86;97.77
72612;BME280;60655;52.182;4.474;2023-05-08T04:53:00;102050.03;;;11.96;98.24
72612;BME280;60655;52.182;4.474;2023-05-08T04:55:01;102045.78;;;12.02;98.27
72612;BME280;60655;52.182;4.474;2023-05-08T04:57:02;102043.56;;;12.05;98.16
72612;BME280;60655;52.182;4.474;2023-05-08T04:59:03;102044.81;;;12.09;97.98
72612;BME280;60655;52.182;4.474;2023-05-08T05:01:04;102044.63;;;12.11;97.92
72612;BME280;60655;52.182;4.474;2023-05-08T05:03:05;102054.00;;;12.07;98.35
72612;BME280;60655;52.182;4.474;2023-05-08T05:05:06;102057.50;;;12.07;98.80
72612;BME280;60655;52.182;4.474;2023-05-08T05:07:07;102064.47;;;12.15;98.88
72612;BME280;60655;52.182;4.474;2023-05-08T05:09:09;102061.81;;;12.15;98.75
72612;BME280;60655;52.182;4.474;2023-05-08T05:11:10;102068.41;;;12.12;99.47
72612;BME280;60655;52.182;4.474;2023-05-08T05:13:11;102066.59;;;12.26;99.02
72612;BME280;60655;52.182;4.474;2023-05-08T05:15:12;102065.53;;;12.21;98.98
72612;BME280;60655;52.182;4.474;2023-05-08T05:17:13;102057.94;;;12.17;99.22
72612;BME280;60655;52.182;4.474;2023-05-08T05:19:13;102066.81;;;12.25;99.23
72612;BME280;60655;52.182;4.474;2023-05-08T05:21:15;102070.25;;;12.18;99.75
72612;BME280;60655;52.182;4.474;2023-05-08T05:23:16;102074.16;;;12.23;99.99
72612;BME280;60655;52.182;4.474;2023-05-08T05:25:17;102078.47;;;12.24;99.78
72612;BME280;60655;52.182;4.474;2023-05-08T05:27:18;102078.03;;;12.20;99.75
72612;BME280;60655;52.182;4.474;2023-05-08T05:29:19;102078.41;;;12.10;99.98
72612;BME280;60655;52.182;4.474;2023-05-08T05:31:20;102087.06;;;12.19;100.00
72612;BME280;60655;52.182;4.474;2023-05-08T05:33:21;102083.22;;;12.28;100.00
72612;BME280;60655;52.182;4.474;2023-05-08T05:35:22;102081.19;;;12.30;100.00
72612;BME280;60655;52.182;4.474;2023-05-08T05:37:23;102081.19;;;12.30;100.00
72612;BME280;60655;52.182;4.474;2023-05-08T05:39:24;102083.91;;;12.37;100.00
72612;BME280;60655;52.182;4.474;2023-05-08T05:41:25;102095.19;;;12.39;100.00
72612;BME280;60655;52.182;4.474;2023-05-08T05:43:26;102097.44;;;12.42;100.00
72612;BME280;60655;52.182;4.474;2023-05-08T05:45:27;102100.41;;;12.26;100.00
72612;BME280;60655;52.182;4.474;2023-05-08T05:47:27;102105.22;;;12.43;100.00
72612;BME280;60655;52.182;4.474;2023-05-08T05:49:28;102097.44;;;12.42;100.00
72612;BME280;60655;52.182;4.474;2023-05-08T05:51:29;102109.56;;;12.51;100.00
72612;BME280;60655;52.182;4.474;2023-05-08T05:53:30;102114.91;;;12.51;100.00
72612;BME280;60655;52.182;4.474;2023-05-08T05:55:31;102109.56;;;12.51;100.00
72612;BME280;60655;52.182;4.474;2023-05-08T05:57:32;102112.28;;;12.58;100.00
72612;BME280;60655;52.182;4.474;2023-05-08T05:59:33;102101.38;;;12.52;100.00
72612;BME280;60655;52.182;4.474;2023-05-08T06:01:34;102108.63;;;12.65;100.00
72612;BME280;60655;52.182;4.474;2023-05-08T06:03:35;102103.72;;;12.75;100.00
72612;BME280;60655;52.182;4.474;2023-05-08T06:05:36;102109.28;;;12.80;100.00
72612;BME280;60655;52.182;4.474;2023-05-08T06:07:37;102112.56;;;12.76;100.00
72612;BME280;60655;52.182;4.474;2023-05-08T06:09:39;102113.00;;;12.86;100.00
72612;BME280;60655;52.182;4.474;2023-05-08T06:11:40;102104.00;;;12.87;100.00
72612;BME280;60655;52.182;4.474;2023-05-08T06:13:41;102110.59;;;12.98;100.00
72612;BME280;60655;52.182;4.474;2023-05-08T06:15:43;102107.13;;;13.10;100.00
72612;BME280;60655;52.182;4.474;2023-05-08T06:17:44;102100.38;;;13.14;100.00
72612;BME280;60655;52.182;4.474;2023-05-08T06:19:45;102103.50;;;13.31;99.41
72612;BME280;60655;52.182;4.474;2023-05-08T06:21:50;102099.59;;;13.34;98.93
72612;BME280;60655;52.182;4.474;2023-05-08T06:23:51;102106.81;;;13.40;98.97
72612;BME280;60655;52.182;4.474;2023-05-08T06:25:53;102101.88;;;13.43;98.51
72612;BME280;60655;52.182;4.474;2023-05-08T06:27:53;102097.38;;;13.50;98.08
72612;BME280;60655;52.182;4.474;2023-05-08T06:29:54;102102.72;;;13.44;97.99
72612;BME280;60655;52.182;4.474;2023-05-08T06:31:55;102103.69;;;13.16;98.68
72612;BME280;60655;52.182;4.474;2023-05-08T06:33:57;102103.91;;;13.22;99.71
72612;BME280;60655;52.182;4.474;2023-05-08T06:35:58;102086.66;;;13.17;99.97
72612;BME280;60655;52.182;4.474;2023-05-08T06:37:59;102101.03;;;13.30;99.80
72612;BME280;60655;52.182;4.474;2023-05-08T06:39:59;102095.53;;;13.44;98.40
72612;BME280;60655;52.182;4.474;2023-05-08T06:42:00;102102.13;;;13.55;97.47
72612;BME280;60655;52.182;4.474;2023-05-08T06:44:02;102103.94;;;13.61;97.31
72612;BME280;60655;52.182;4.474;2023-05-08T06:46:03;102101.47;;;13.66;97.18
72612;BME280;60655;52.182;4.474;2023-05-08T06:48:04;102110.31;;;13.73;97.19
72612;BME280;60655;52.182;4.474;2023-05-08T06:50:06;102095.75;;;13.76;95.83
72612;BME280;60655;52.182;4.474;2023-05-08T06:52:07;102101.28;;;13.81;97.17
72612;BME280;60655;52.182;4.474;2023-05-08T06:54:08;102108.69;;;13.85;97.16
72612;BME280;60655;52.182;4.474;2023-05-08T06:56:08;102104.13;;;13.86;97.17
72612;BME280;60655;52.182;4.474;2023-05-08T06:58:09;102100.25;;;13.95;97.64
72612;BME280;60655;52.182;4.474;2023-05-08T07:00:11;102109.06;;;13.89;97.03
72612;BME280;60655;52.182;4.474;2023-05-08T07:02:12;102106.00;;;13.99;97.56
72612;BME280;60655;52.182;4.474;2023-05-08T07:04:13;102098.19;;;14.04;97.27
72612;BME280;60655;52.182;4.474;2023-05-08T07:06:14;102097.78;;;13.87;96.67
72612;BME280;60655;52.182;4.474;2023-05-08T07:08:15;102095.31;;;13.92;97.28
72612;BME280;60655;52.182;4.474;2023-05-08T07:10:16;102090.78;;;13.86;97.42
72612;BME280;60655;52.182;4.474;2023-05-08T07:12:19;102094.91;;;13.95;97.49
72612;BME280;60655;52.182;4.474;2023-05-08T07:14:20;102088.72;;;14.01;97.68
72612;BME280;60655;52.182;4.474;2023-05-08T07:16:21;102087.25;;;14.18;96.98
72612;BME280;60655;52.182;4.474;2023-05-08T07:18:22;102078.22;;;14.13;96.87
72612;BME280;60655;52.182;4.474;2023-05-08T07:20:23;102092.59;;;14.18;97.36
72612;BME280;60655;52.182;4.474;2023-05-08T07:22:24;102090.72;;;14.26;96.63
72612;BME280;60655;52.182;4.474;2023-05-08T07:24:25;102092.78;;;14.24;96.47
72612;BME280;60655;52.182;4.474;2023-05-08T07:26:26;102086.19;;;14.33;96.32
72612;BME280;60655;52.182;4.474;2023-05-08T07:28:27;102096.88;;;14.39;95.88
72612;BME280;60655;52.182;4.474;2023-05-08T07:30:28;102088.00;;;14.45;95.48
72612;BME280;60655;52.182;4.474;2023-05-08T07:32:29;102093.38;;;14.45;93.47
72612;BME280;60655;52.182;4.474;2023-05-08T07:34:32;102094.19;;;14.39;94.10
72612;BME280;60655;52.182;4.474;2023-05-08T07:36:33;102091.34;;;14.34;94.88
72612;BME280;60655;52.182;4.474;2023-05-08T07:38:34;102097.88;;;14.51;94.27
72612;BME280;60655;52.182;4.474;2023-05-08T07:40:36;102094.75;;;14.61;94.06
72612;BME280;60655;52.182;4.474;2023-05-08T07:42:41;102094.75;;;14.61;94.32
72612;BME280;60655;52.182;4.474;2023-05-08T07:44:42;102079.09;;;14.71;93.67
72612;BME280;60655;52.182;4.474;2023-05-08T07:46:43;102093.81;;;14.87;92.93
72612;BME280;60655;52.182;4.474;2023-05-08T07:48:44;102096.09;;;14.83;93.39
72612;BME280;60655;52.182;4.474;2023-05-08T07:50:48;102096.09;;;14.83;93.59
72612;BME280;60655;52.182;4.474;2023-05-08T07:52:49;102099.78;;;14.89;93.29
72612;BME280;60655;52.182;4.474;2023-05-08T07:54:50;102096.47;;;14.94;92.46
72612;BME280;60655;52.182;4.474;2023-05-08T07:56:51;102099.75;;;14.96;92.36
72612;BME280;60655;52.182;4.474;2023-05-08T07:58:52;102089.47;;;14.93;93.17
72612;BME280;60655;52.182;4.474;2023-05-08T08:00:53;102095.03;;;14.91;93.27
72612;BME280;60655;52.182;4.474;2023-05-08T08:02:54;102099.28;;;15.05;91.72
72612;BME280;60655;52.182;4.474;2023-05-08T08:04:55;102099.03;;;15.13;91.42
72612;BME280;60655;52.182;4.474;2023-05-08T08:06:56;102104.41;;;15.07;91.03
72612;BME280;60655;52.182;4.474;2023-05-08T08:08:57;102106.47;;;15.05;91.45
72612;BME280;60655;52.182;4.474;2023-05-08T08:10:58;102098.78;;;14.83;91.85
72612;BME280;60655;52.182;4.474;2023-05-08T08:12:59;102102.88;;;14.86;92.77
72612;BME280;60655;52.182;4.474;2023-05-08T08:15:01;102101.81;;;14.94;92.92
72612;BME280;60655;52.182;4.474;2023-05-08T08:17:02;102105.63;;;15.11;92.81
72612;BME280;60655;52.182;4.474;2023-05-08T08:19:03;102100.25;;;15.17;92.15
72612;BME280;60655;52.182;4.474;2023-05-08T08:21:05;102097.47;;;15.31;91.29
72612;BME280;60655;52.182;4.474;2023-05-08T08:23:07;102097.41;;;15.37;91.03
72612;BME280;60655;52.182;4.474;2023-05-08T08:25:08;102092.81;;;15.51;90.81
72612;BME280;60655;52.182;4.474;2023-05-08T08:27:09;102093.22;;;15.48;90.99
72612;BME280;60655;52.182;4.474;2023-05-08T08:29:10;102092.16;;;15.56;90.65
72612;BME280;60655;52.182;4.474;2023-05-08T08:31:11;102097.03;;;15.65;90.13
72612;BME280;60655;52.182;4.474;2023-05-08T08:33:12;102093.66;;;15.76;89.58
72612;BME280;60655;52.182;4.474;2023-05-08T08:35:13;102088.47;;;15.81;89.68
72612;BME280;60655;52.182;4.474;2023-05-08T08:37:13;102089.06;;;15.83;88.67
72612;BME280;60655;52.182;4.474;2023-05-08T08:39:14;102091.63;;;15.72;89.12
72612;BME280;60655;52.182;4.474;2023-05-08T08:41:15;102095.66;;;15.81;89.61
72612;BME280;60655;52.182;4.474;2023-05-08T08:43:16;102096.78;;;15.92;89.19
72612;BME280;60655;52.182;4.474;2023-05-08T08:45:17;102090.50;;;16.04;88.22
72612;BME280;60655;52.182;4.474;2023-05-08T08:47:21;102091.69;;;16.08;88.31
72612;BME280;60655;52.182;4.474;2023-05-08T08:49:30;102092.06;;;16.12;87.44
72612;BME280;60655;52.182;4.474;2023-05-08T08:51:35;102080.59;;;16.05;87.17
72612;BME280;60655;52.182;4.474;2023-05-08T08:53:45;102085.34;;;16.03;87.73
72612;BME280;60655;52.182;4.474;2023-05-08T08:55:49;102094.88;;;15.99;87.32
72612;BME280;60655;52.182;4.474;2023-05-08T09:00:27;102086.56;;;16.25;87.44
72612;BME280;60655;52.182;4.474;2023-05-08T09:02:30;102084.56;;;16.39;86.19
72612;BME280;60655;52.182;4.474;2023-05-08T09:04:31;102087.06;;;16.52;86.14
72612;BME280;60655;52.182;4.474;2023-05-08T09:06:36;102086.25;;;16.51;85.74
72612;BME280;60655;52.182;4.474;2023-05-08T09:08:37;102081.59;;;16.65;86.25
72612;BME280;60655;52.182;4.474;2023-05-08T09:10:38;102090.72;;;16.76;85.12
72612;BME280;60655;52.182;4.474;2023-05-08T09:12:39;102092.94;;;16.79;84.27
72612;BME280;60655;52.182;4.474;2023-05-08T09:14:41;102090.03;;;16.80;84.59
72612;BME280;60655;52.182;4.474;2023-05-08T09:16:42;102086.41;;;16.75;84.94
72612;BME280;60655;52.182;4.474;2023-05-08T09:18:43;102084.59;;;16.87;84.09
72612;BME280;60655;52.182;4.474;2023-05-08T09:20:44;102082.13;;;16.85;83.88
72612;BME280;60655;52.182;4.474;2023-05-08T09:22:45;102085.41;;;16.87;84.24
72612;BME280;60655;52.182;4.474;2023-05-08T09:24:56;102082.88;;;16.93;85.02
72612;BME280;60655;52.182;4.474;2023-05-08T09:26:57;102086.59;;;16.92;84.40
72612;BME280;60655;52.182;4.474;2023-05-08T09:29:18;102088.69;;;16.90;83.24
72612;BME280;60655;52.182;4.474;2023-05-08T09:31:33;102084.72;;;16.44;83.63
72612;BME280;60655;52.182;4.474;2023-05-08T09:33:43;102078.09;;;16.65;84.83
72612;BME280;60655;52.182;4.474;2023-05-08T09:35:44;102088.19;;;16.81;82.19
72612;BME280;60655;52.182;4.474;2023-05-08T09:37:48;102090.28;;;16.61;82.46
72612;BME280;60655;52.182;4.474;2023-05-08T09:39:49;102096.03;;;16.64;83.79
72612;BME280;60655;52.182;4.474;2023-05-08T09:42:00;102099.38;;;16.60;83.63
72612;BME280;60655;52.182;4.474;2023-05-08T09:44:04;102087.59;;;16.79;82.68
72612;BME280;60655;52.182;4.474;2023-05-08T09:48:18;102096.47;;;16.61;83.70
72612;BME280;60655;52.182;4.474;2023-05-08T09:50:19;102086.84;;;16.53;83.05
72612;BME280;60655;52.182;4.474;2023-05-08T09:52:20;102092.38;;;16.59;83.34
72612;BME280;60655;52.182;4.474;2023-05-08T09:54:21;102093.19;;;16.77;82.84
72612;BME280;60655;52.182;4.474;2023-05-08T09:56:48;102090.88;;;16.81;81.40
72612;BME280;60655;52.182;4.474;2023-05-08T09:58:49;102090.56;;;16.89;82.91
72612;BME280;60655;52.182;4.474;2023-05-08T10:00:50;102094.19;;;16.65;82.02
72612;BME280;60655;52.182;4.474;2023-05-08T10:02:59;102094.19;;;16.95;82.08
72612;BME280;60655;52.182;4.474;2023-05-08T10:05:01;102089.66;;;16.95;81.21
72612;BME280;60655;52.182;4.474;2023-05-08T10:07:03;102082.19;;;17.39;80.08
72612;BME280;60655;52.182;4.474;2023-05-08T10:09:11;102085.03;;;17.55;79.97
72612;BME280;60655;52.182;4.474;2023-05-08T10:11:21;102089.13;;;17.58;79.61
72612;BME280;60655;52.182;4.474;2023-05-08T10:13:22;102090.91;;;17.76;78.38
72612;BME280;60655;52.182;4.474;2023-05-08T10:15:33;102080.03;;;17.94;78.17
72612;BME280;60655;52.182;4.474;2023-05-08T10:17:43;102088.00;;;17.89;78.69
72612;BME280;60655;52.182;4.474;2023-05-08T10:19:47;102087.63;;;18.09;79.40
72612;BME280;60655;52.182;4.474;2023-05-08T10:21:50;102090.28;;;18.32;78.40
72612;BME280;60655;52.182;4.474;2023-05-08T10:23:55;102083.84;;;18.33;77.68
72612;BME280;60655;52.182;4.474;2023-05-08T10:25:59;102085.13;;;18.31;77.05
72612;BME280;60655;52.182;4.474;2023-05-08T10:28:12;102082.72;;;18.06;76.79
72612;BME280;60655;52.182;4.474;2023-05-08T10:30:16;102085.41;;;17.71;77.71
72612;BME280;60655;52.182;4.474;2023-05-08T10:32:20;102085.28;;;17.66;78.22
72612;BME280;60655;52.182;4.474;2023-05-08T10:34:22;102091.09;;;17.63;79.29
72612;BME280;60655;52.182;4.474;2023-05-08T10:36:26;102091.00;;;17.58;78.41
72612;BME280;60655;52.182;4.474;2023-05-08T10:38:29;102094.69;;;17.45;76.94
72612;BME280;60655;52.182;4.474;2023-05-08T10:40:30;102096.09;;;17.47;78.53
72612;BME280;60655;52.182;4.474;2023-05-08T10:42:32;102093.06;;;17.44;79.11
72612;BME280;60655;52.182;4.474;2023-05-08T10:44:35;102078.59;;;17.57;78.61
72612;BME280;60655;52.182;4.474;2023-05-08T10:49:17;102087.16;;;17.77;76.54
72612;BME280;60655;52.182;4.474;2023-05-08T10:53:43;102073.69;;;17.53;77.82
72612;BME280;60655;52.182;4.474;2023-05-08T10:55:49;102082.13;;;17.69;77.91
72612;BME280;60655;52.182;4.474;2023-05-08T11:00:11;102075.38;;;17.90;77.96
72612;BME280;60655;52.182;4.474;2023-05-08T11:02:13;102070.09;;;18.18;75.54
72612;BME280;60655;52.182;4.474;2023-05-08T11:04:21;102067.13;;;18.19;75.43
72612;BME280;60655;52.182;4.474;2023-05-08T11:06:42;102073.25;;;18.15;75.27
72612;BME280;60655;52.182;4.474;2023-05-08T11:08:49;102071.50;;;18.49;75.27
72612;BME280;60655;52.182;4.474;2023-05-08T11:12:58;102062.91;;;18.35;74.38
72612;BME280;60655;52.182;4.474;2023-05-08T11:15:02;102066.06;;;18.32;75.43